Hauptseite
METAR-TAF:

METAR-TAF

Flughäfen :

Penn Yan Airport

Penn Yan, New York, Vereinigte Staaten

Breite: 42-38-35N, Länge: 077-02-58W, Höhe: 275 m

Beobachtung

Neuester Wetterbericht von vor 1 Stunde und 5 Minuten, um 19:53 UTC
Wind 10 kt aus Nordwest
Temperatur 6°C
Luftfeuchtigkeit 87%
Luftdruck 1013 hPa
Sichtweite: 8.0 km
Geschlossene Wolkendecke in der Höhe von 900 ft
feuchter Dunst

METAR: KPEO 031953Z AUTO 32010KT 5SM BR OVC009 06/04 A2992 RMK AO2 CIG 006V012 SLP140 T00610039

Zeit: 16:58 (20:58 UTC)


TAF: fehlend

Wetterbeobachtungen und Prognosen von mehr als 4000 Flughäfen (METAR und TAF Bericht).

Die verfügbaren Stationen werden durch gelbe und rote Markierungen auf der Karte dargestellt.

Führen Sie die Maus auf sie, um den Namen der Station zu sehen.

Darauf klicken, um die Beobachtung von Wetterbeobachtungen und Prognosen zu sehen.

Um die Karte zu ändern : klicken Sie auf den grünen Tasten mit einem schwarzen Kreuz Zum Vergrößern, auf den grünen Button mit einem Gedankenstrich zu verkleinern, oder auf die grünen Pfeile für benachbarte Karten.


METAR-TAF: